createdAt,value
2022-09-18T00:01:13.879Z,10.53
2022-09-18T00:03:41.192Z,11.60
2022-09-18T00:06:14.896Z,11.13
2022-09-18T00:08:43.662Z,13.80
2022-09-18T00:11:12.632Z,12.20
2022-09-18T00:13:40.550Z,15.60
2022-09-18T00:16:09.237Z,10.10
2022-09-18T00:18:36.224Z,9.70
2022-09-18T00:21:24.585Z,14.10
2022-09-18T00:23:54.334Z,9.23
2022-09-18T00:26:21.016Z,9.73
2022-09-18T00:28:47.562Z,10.40
2022-09-18T00:31:17.360Z,11.90
2022-09-18T00:33:43.958Z,10.43
2022-09-18T00:36:13.453Z,10.30
2022-09-18T00:38:40.708Z,11.43
2022-09-18T00:41:11.150Z,10.83
2022-09-18T00:43:37.631Z,9.93
2022-09-18T00:46:08.082Z,10.57
2022-09-18T00:48:47.407Z,13.43
2022-09-18T00:51:14.930Z,10.20
2022-09-18T00:53:45.613Z,13.03
2022-09-18T00:56:14.974Z,12.00
2022-09-18T00:58:42.162Z,16.03
2022-09-18T01:01:09.178Z,17.63
2022-09-18T01:03:35.881Z,14.00
2022-09-18T01:06:15.791Z,11.97
2022-09-18T01:09:28.388Z,13.57
2022-09-18T01:12:10.242Z,9.60
2022-09-18T01:14:44.663Z,11.07
2022-09-18T01:17:37.562Z,8.33
2022-09-18T01:20:36.374Z,9.97
2022-09-18T01:23:27.390Z,11.30
2022-09-18T01:26:12.583Z,12.00
2022-09-18T01:28:43.953Z,8.90
2022-09-18T01:31:15.203Z,14.37
2022-09-18T01:33:48.316Z,10.27
2022-09-18T01:36:16.733Z,9.43
2022-09-18T01:38:48.531Z,9.87
2022-09-18T01:41:21.012Z,8.43
2022-09-18T01:43:50.964Z,8.30
2022-09-18T01:46:19.626Z,11.00
2022-09-18T01:49:13.105Z,11.67
2022-09-18T01:52:15.563Z,9.63
2022-09-18T01:54:45.275Z,8.00
2022-09-18T01:57:24.181Z,9.00
2022-09-18T02:00:05.027Z,13.03
2022-09-18T02:02:36.641Z,12.67
2022-09-18T02:05:07.576Z,14.33
2022-09-18T02:07:54.361Z,10.43
2022-09-18T02:10:23.137Z,11.13
2022-09-18T02:12:51.048Z,13.93
2022-09-18T02:15:17.708Z,8.60
2022-09-18T02:17:51.631Z,12.50
2022-09-18T02:20:22.119Z,10.30
2022-09-18T02:22:50.835Z,12.77
2022-09-18T02:25:20.405Z,8.73
2022-09-18T02:27:48.314Z,13.27
2022-09-18T02:30:14.876Z,11.77
2022-09-18T02:32:41.670Z,15.60
2022-09-18T02:35:09.853Z,11.77
2022-09-18T02:37:44.748Z,12.73
2022-09-18T02:40:56.250Z,13.93
2022-09-18T02:43:55.508Z,15.03
2022-09-18T02:46:54.181Z,13.97
2022-09-18T02:49:27.840Z,14.23
2022-09-18T02:52:37.224Z,11.87
2022-09-18T02:55:16.555Z,13.70
2022-09-18T02:58:15.974Z,10.03
2022-09-18T03:00:44.141Z,13.83
2022-09-18T03:03:14.948Z,13.63
2022-09-18T03:05:44.953Z,9.13
2022-09-18T03:08:12.347Z,11.93
2022-09-18T03:10:38.848Z,10.10
2022-09-18T03:13:05.357Z,12.23
2022-09-18T03:15:32.098Z,11.23
2022-09-18T03:17:58.541Z,12.33
2022-09-18T03:20:25.084Z,12.33
2022-09-18T03:22:51.592Z,12.87
2022-09-18T03:25:18.071Z,10.90
2022-09-18T03:27:44.491Z,11.53
2022-09-18T03:30:11.505Z,10.37
2022-09-18T03:32:37.981Z,8.40
2022-09-18T03:35:04.720Z,11.17
2022-09-18T03:37:31.830Z,12.37
2022-09-18T03:39:58.377Z,12.70
2022-09-18T03:42:24.837Z,12.13
2022-09-18T03:44:51.258Z,13.30
2022-09-18T03:47:17.726Z,10.43
2022-09-18T03:49:47.025Z,9.50
2022-09-18T03:52:13.494Z,11.40
2022-09-18T03:54:39.917Z,11.20
2022-09-18T03:57:06.365Z,9.53
2022-09-18T03:59:32.799Z,9.80
2022-09-18T04:01:59.349Z,9.67
2022-09-18T04:04:25.905Z,15.10
2022-09-18T04:06:52.377Z,12.37
2022-09-18T04:09:18.823Z,7.53
2022-09-18T04:11:45.288Z,9.33
2022-09-18T04:14:11.742Z,14.27
2022-09-18T04:16:38.408Z,6.77
2022-09-18T04:19:04.854Z,10.77
2022-09-18T04:21:32.716Z,10.97
2022-09-18T04:23:59.325Z,10.13
2022-09-18T04:26:27.094Z,11.00
2022-09-18T04:28:53.558Z,13.53
2022-09-18T04:31:20.095Z,9.97
2022-09-18T04:33:46.694Z,11.13
2022-09-18T04:36:13.157Z,13.43
2022-09-18T04:38:39.599Z,15.53
2022-09-18T04:41:06.145Z,11.53
2022-09-18T04:43:32.668Z,13.40
2022-09-18T04:45:59.205Z,11.70
2022-09-18T04:48:25.762Z,13.53
2022-09-18T04:50:52.237Z,9.13
2022-09-18T04:53:19.386Z,14.40
2022-09-18T04:55:46.737Z,10.77
2022-09-18T04:58:14.097Z,11.37
2022-09-18T05:00:40.802Z,9.93
2022-09-18T05:03:08.132Z,15.67
2022-09-18T05:05:35.165Z,9.30
2022-09-18T05:08:02.793Z,11.97
2022-09-18T05:10:29.447Z,12.40
2022-09-18T05:12:55.904Z,12.00
2022-09-18T05:15:22.577Z,9.77
2022-09-18T05:17:49.037Z,7.70
2022-09-18T05:20:15.961Z,11.17
2022-09-18T05:22:46.908Z,9.90
2022-09-18T05:25:13.375Z,10.03
2022-09-18T05:27:39.846Z,7.23
2022-09-18T05:30:07.096Z,10.73
2022-09-18T05:32:33.550Z,7.80
2022-09-18T05:34:59.993Z,8.73
2022-09-18T05:37:26.561Z,5.80
2022-09-18T05:39:53.046Z,10.97
2022-09-18T05:42:19.574Z,7.67
2022-09-18T05:44:46.047Z,6.93
2022-09-18T05:47:12.603Z,6.90
2022-09-18T05:49:39.046Z,9.43
2022-09-18T05:52:05.498Z,7.57
2022-09-18T05:54:32.152Z,4.53
2022-09-18T05:56:58.686Z,7.83
2022-09-18T05:59:25.409Z,8.30
2022-09-18T06:01:52.009Z,9.80
2022-09-18T06:04:18.509Z,10.07
2022-09-18T06:06:45.042Z,8.33
2022-09-18T06:09:11.500Z,8.13
2022-09-18T06:11:37.976Z,9.87
2022-09-18T06:14:04.413Z,9.37
2022-09-18T06:16:31.117Z,7.27
2022-09-18T06:18:57.635Z,7.63
2022-09-18T06:21:24.094Z,10.30
2022-09-18T06:23:50.542Z,7.37
2022-09-18T06:26:17.022Z,6.23
2022-09-18T06:28:44.047Z,8.93
2022-09-18T06:31:10.828Z,5.67
2022-09-18T06:33:37.399Z,4.23
2022-09-18T06:36:08.287Z,7.67
2022-09-18T06:38:34.782Z,9.50
2022-09-18T06:41:01.341Z,9.57
2022-09-18T06:43:28.247Z,8.90
2022-09-18T06:45:55.779Z,7.13
2022-09-18T06:48:23.182Z,8.47
2022-09-18T06:50:59.678Z,10.30
2022-09-18T06:53:26.668Z,4.53
2022-09-18T06:55:53.645Z,7.00
2022-09-18T06:58:20.566Z,8.33
2022-09-18T07:00:47.174Z,6.93
2022-09-18T07:03:13.693Z,6.23
2022-09-18T07:05:42.406Z,6.70
2022-09-18T07:08:09.765Z,6.60
2022-09-18T07:10:36.615Z,9.30
2022-09-18T07:13:03.119Z,9.17
2022-09-18T07:15:29.710Z,7.60
2022-09-18T07:17:57.425Z,7.83
2022-09-18T07:20:23.928Z,6.67
2022-09-18T07:22:55.104Z,11.10
2022-09-18T07:25:22.190Z,8.60
2022-09-18T07:27:49.066Z,9.03
2022-09-18T07:30:15.878Z,7.53
2022-09-18T07:32:42.457Z,9.97
2022-09-18T07:35:09.650Z,8.80
2022-09-18T07:37:36.438Z,8.83
2022-09-18T07:40:03.015Z,9.07
2022-09-18T07:42:29.542Z,9.27
2022-09-18T07:44:56.098Z,8.70
2022-09-18T07:47:24.667Z,11.60
2022-09-18T07:49:51.139Z,11.50
2022-09-18T07:52:18.267Z,8.97
2022-09-18T07:54:44.817Z,11.40
2022-09-18T07:57:11.273Z,9.73
2022-09-18T07:59:37.751Z,13.20
2022-09-18T08:02:05.655Z,12.43
2022-09-18T08:04:32.365Z,8.93
2022-09-18T08:07:03.836Z,11.70
2022-09-18T08:09:30.349Z,9.60
2022-09-18T08:11:56.876Z,11.90
2022-09-18T08:14:28.028Z,9.23
2022-09-18T08:16:55.912Z,8.97
2022-09-18T08:19:22.526Z,8.27
2022-09-18T08:21:49.405Z,9.67
2022-09-18T08:24:17.545Z,8.77
2022-09-18T08:26:44.420Z,8.47
2022-09-18T08:29:13.946Z,6.23
2022-09-18T08:31:40.445Z,8.40
2022-09-18T08:34:06.927Z,5.27
2022-09-18T08:36:33.391Z,6.17
2022-09-18T08:39:00.295Z,3.77
2022-09-18T08:41:55.119Z,4.53
2022-09-18T08:44:28.903Z,6.87
2022-09-18T08:47:02.634Z,5.90
2022-09-18T08:49:32.852Z,4.13
2022-09-18T08:52:20.929Z,4.30
2022-09-18T08:54:57.034Z,4.73
2022-09-18T08:57:27.690Z,5.20
2022-09-18T09:00:22.181Z,5.57
2022-09-18T09:03:00.921Z,3.60
2022-09-18T09:05:42.920Z,3.00
2022-09-18T09:08:32.264Z,4.03
2022-09-18T09:11:11.348Z,4.73
2022-09-18T09:13:56.961Z,4.37
2022-09-18T09:16:41.131Z,2.80
2022-09-18T09:19:26.768Z,6.17
2022-09-18T09:22:08.802Z,4.53
2022-09-18T09:25:09.267Z,4.83
2022-09-18T09:27:39.587Z,7.60
2022-09-18T09:30:13.252Z,5.93
2022-09-18T09:32:45.783Z,7.57
2022-09-18T09:35:29.638Z,5.30
2022-09-18T09:37:56.195Z,3.93
2022-09-18T09:40:32.357Z,7.70
2022-09-18T09:43:08.103Z,4.40
2022-09-18T09:45:51.927Z,6.17
2022-09-18T09:48:27.766Z,5.40
2022-09-18T09:51:01.862Z,4.57
2022-09-18T09:53:28.557Z,4.63
2022-09-18T09:56:07.148Z,4.70
2022-09-18T09:58:56.511Z,4.10
2022-09-18T10:01:27.382Z,4.53
2022-09-18T10:04:16.947Z,4.97
2022-09-18T10:07:13.263Z,7.77
2022-09-18T10:09:53.159Z,4.50
2022-09-18T10:12:30.788Z,5.50
2022-09-18T10:15:11.806Z,4.47
2022-09-18T10:17:40.037Z,3.33
2022-09-18T10:20:07.173Z,4.80
2022-09-18T10:22:35.158Z,7.00
2022-09-18T10:25:05.960Z,5.07
2022-09-18T10:27:32.479Z,6.30
2022-09-18T10:30:00.033Z,4.30
2022-09-18T10:32:38.244Z,6.60
2022-09-18T10:35:26.609Z,2.87
2022-09-18T10:37:53.126Z,3.53
2022-09-18T10:40:31.680Z,3.93
2022-09-18T10:42:59.052Z,3.63
2022-09-18T10:45:30.305Z,4.63
2022-09-18T10:48:04.822Z,3.53
2022-09-18T10:50:34.428Z,6.03
2022-09-18T10:53:29.687Z,6.77
2022-09-18T10:56:03.617Z,6.60
2022-09-18T10:58:31.881Z,5.53
2022-09-18T11:01:08.290Z,4.97
2022-09-18T11:03:41.684Z,4.63
2022-09-18T11:06:19.676Z,5.10
2022-09-18T11:08:48.917Z,4.20
2022-09-18T11:11:31.378Z,6.30
2022-09-18T11:14:19.176Z,6.53
2022-09-18T11:16:49.057Z,6.60
2022-09-18T11:19:23.689Z,6.17
2022-09-18T11:21:59.371Z,4.17
2022-09-18T11:24:34.616Z,6.33
2022-09-18T11:27:22.356Z,4.83
2022-09-18T11:29:49.098Z,4.53
2022-09-18T11:32:21.539Z,7.03
2022-09-18T11:34:53.484Z,3.53
2022-09-18T11:37:43.226Z,3.97
2022-09-18T11:40:18.104Z,2.63
2022-09-18T11:42:46.562Z,3.87
2022-09-18T11:45:31.898Z,2.47
2022-09-18T11:48:28.215Z,1.37
2022-09-18T11:50:57.883Z,2.80
2022-09-18T11:53:27.908Z,2.43
2022-09-18T11:56:25.426Z,2.43
2022-09-18T11:58:55.813Z,1.10
2022-09-18T12:01:33.632Z,1.70
2022-09-18T12:04:41.494Z,2.70
2022-09-18T12:10:29.857Z,5.77
2022-09-18T12:13:18.185Z,3.90
2022-09-18T12:15:50.025Z,3.00
2022-09-18T12:18:29.572Z,4.80
2022-09-18T12:20:59.912Z,6.67
2022-09-18T12:23:27.078Z,4.00
2022-09-18T12:26:02.001Z,3.33
2022-09-18T12:28:41.304Z,5.70
2022-09-18T12:31:17.790Z,5.83
2022-09-18T12:34:15.236Z,5.93
2022-09-18T12:37:08.924Z,5.43
2022-09-18T12:40:13.768Z,9.73
2022-09-18T12:43:18.744Z,6.07
2022-09-18T12:45:57.044Z,6.13
2022-09-18T12:49:02.331Z,6.03
2022-09-18T12:51:36.373Z,4.73
2022-09-18T12:54:24.633Z,2.60
2022-09-18T12:57:19.171Z,3.97
2022-09-18T12:59:52.423Z,3.37
2022-09-18T13:02:24.760Z,2.23
2022-09-18T13:05:00.619Z,3.40
2022-09-18T13:07:45.135Z,2.00
2022-09-18T13:10:20.802Z,2.03
2022-09-18T13:13:14.021Z,1.67
2022-09-18T13:15:46.351Z,3.80
2022-09-18T13:18:40.855Z,2.00
2022-09-18T13:21:16.343Z,1.97
2022-09-18T13:23:43.083Z,1.70
2022-09-18T13:26:12.400Z,2.50
2022-09-18T13:28:41.554Z,1.97
2022-09-18T13:31:27.699Z,3.73
2022-09-18T13:34:05.629Z,3.10
2022-09-18T13:36:34.979Z,2.50
2022-09-18T13:39:05.623Z,4.00
2022-09-18T13:41:47.486Z,2.40
2022-09-18T13:44:35.443Z,2.17
2022-09-18T13:47:14.144Z,2.17
2022-09-18T13:49:55.953Z,3.10
2022-09-18T13:52:43.787Z,2.37
2022-09-18T13:55:33.679Z,2.33
2022-09-18T13:58:31.304Z,3.03
2022-09-18T14:01:04.927Z,3.13
2022-09-18T14:03:39.655Z,1.67
2022-09-18T14:06:37.412Z,2.53
2022-09-18T14:09:25.479Z,4.23
2022-09-18T14:11:52.436Z,1.93
2022-09-18T14:14:23.066Z,2.50
2022-09-18T14:16:50.814Z,2.90
2022-09-18T14:19:20.394Z,3.00
2022-09-18T14:21:46.944Z,3.17
2022-09-18T14:24:40.183Z,3.17
2022-09-18T14:27:26.196Z,2.70
2022-09-18T14:30:02.494Z,2.17
2022-09-18T14:32:29.053Z,2.70
2022-09-18T14:35:26.984Z,2.47
2022-09-18T14:37:53.473Z,2.73
2022-09-18T14:40:25.219Z,5.40
2022-09-18T14:42:51.684Z,3.17
2022-09-18T14:45:24.576Z,3.23
2022-09-18T14:47:51.303Z,3.03
2022-09-18T14:50:37.745Z,2.73
2022-09-18T14:53:25.941Z,3.23
2022-09-18T14:55:56.024Z,3.53
2022-09-18T14:58:23.605Z,3.47
2022-09-18T15:00:54.771Z,3.57
2022-09-18T15:03:27.560Z,2.67
2022-09-18T15:05:57.054Z,3.27
2022-09-18T15:08:26.782Z,2.53
2022-09-18T15:10:53.808Z,3.57
2022-09-18T15:13:23.143Z,1.77
2022-09-18T15:16:01.514Z,1.73
2022-09-18T15:18:29.288Z,2.80
2022-09-18T15:20:58.975Z,2.63
2022-09-18T15:23:30.278Z,1.53
2022-09-18T15:26:01.454Z,1.80
2022-09-18T15:28:30.125Z,2.13
2022-09-18T15:31:03.425Z,2.77
2022-09-18T15:33:31.394Z,6.03
2022-09-18T15:35:58.385Z,3.07
2022-09-18T15:38:29.972Z,4.37
2022-09-18T15:40:56.784Z,3.23
2022-09-18T15:43:29.636Z,3.60
2022-09-18T15:46:04.544Z,4.77
2022-09-18T15:48:48.890Z,3.80
2022-09-18T15:51:17.475Z,4.47
2022-09-18T15:54:26.697Z,4.27
2022-09-18T15:56:53.929Z,3.57
2022-09-18T15:59:40.605Z,4.30
2022-09-18T16:02:35.117Z,3.33
2022-09-18T16:05:12.355Z,4.17
2022-09-18T16:07:39.935Z,3.63
2022-09-18T16:10:36.983Z,2.93
2022-09-18T16:13:26.476Z,3.80
2022-09-18T16:16:08.283Z,3.73
2022-09-18T16:18:52.511Z,3.90
2022-09-18T16:21:19.963Z,5.40
2022-09-18T16:23:50.623Z,3.93
2022-09-18T16:26:20.148Z,3.50
2022-09-18T16:29:01.508Z,4.80
2022-09-18T16:31:31.990Z,3.33
2022-09-18T16:34:17.911Z,5.47
2022-09-18T16:36:45.425Z,4.03
2022-09-18T16:39:14.148Z,5.07
2022-09-18T16:41:40.872Z,6.00
2022-09-18T16:44:11.576Z,6.87
2022-09-18T16:46:42.324Z,6.20
2022-09-18T16:49:09.895Z,6.30
2022-09-18T16:51:37.532Z,5.17
2022-09-18T16:54:04.233Z,5.47
2022-09-18T16:56:37.595Z,5.63
2022-09-18T16:59:05.058Z,6.07
2022-09-18T17:01:48.550Z,9.13
2022-09-18T17:04:22.118Z,8.20
2022-09-18T17:06:49.462Z,4.97
2022-09-18T17:09:15.995Z,5.20
2022-09-18T17:11:42.464Z,8.77
2022-09-18T17:14:09.279Z,7.03
2022-09-18T17:16:44.658Z,5.53
2022-09-18T17:19:11.911Z,6.33
2022-09-18T17:21:38.991Z,7.80
2022-09-18T17:24:06.128Z,7.33
2022-09-18T17:26:34.791Z,4.40
2022-09-18T17:29:01.427Z,9.57
2022-09-18T17:31:27.987Z,5.97
2022-09-18T17:33:55.093Z,5.93
2022-09-18T17:36:21.959Z,6.50
2022-09-18T17:38:48.453Z,6.63
2022-09-18T17:41:16.789Z,5.43
2022-09-18T17:43:43.344Z,6.33
2022-09-18T17:46:12.104Z,6.37
2022-09-18T17:48:39.083Z,6.33
2022-09-18T17:51:11.916Z,4.77
2022-09-18T17:53:39.246Z,6.43
2022-09-18T17:56:06.512Z,5.33
2022-09-18T17:58:33.041Z,6.80
2022-09-18T18:00:59.988Z,6.93
2022-09-18T18:03:27.559Z,6.67
2022-09-18T18:05:58.579Z,5.23
2022-09-18T18:08:27.301Z,6.73
2022-09-18T18:10:54.953Z,5.57
2022-09-18T18:13:21.715Z,4.23
2022-09-18T18:15:50.848Z,5.93
2022-09-18T18:18:19.657Z,4.43
2022-09-18T18:20:53.312Z,5.30
2022-09-18T18:23:19.790Z,6.27
2022-09-18T18:25:47.310Z,4.87
2022-09-18T18:28:13.774Z,5.50
2022-09-18T18:30:45.979Z,5.03
2022-09-18T18:33:12.433Z,34.43
2022-09-18T18:35:38.905Z,18.67
2022-09-18T18:38:05.357Z,14.60
2022-09-18T18:40:31.798Z,5.17
2022-09-18T18:42:58.458Z,2.43
2022-09-18T18:45:24.991Z,3.33
2022-09-18T18:47:51.591Z,6.60
2022-09-18T18:50:18.533Z,4.60
2022-09-18T18:52:49.282Z,3.33
2022-09-18T18:55:15.780Z,5.57
2022-09-18T18:57:42.235Z,4.63
2022-09-18T19:00:09.522Z,2.23
2022-09-18T19:02:35.960Z,3.60
2022-09-18T19:05:03.278Z,2.83
2022-09-18T19:07:30.090Z,3.50
2022-09-18T19:09:57.943Z,3.73
2022-09-18T19:12:26.833Z,2.93
2022-09-18T19:14:53.267Z,2.20
2022-09-18T19:17:19.739Z,1.37
2022-09-18T19:19:47.297Z,1.97
2022-09-18T19:22:18.830Z,2.57
2022-09-18T19:24:45.255Z,2.03
2022-09-18T19:27:12.541Z,3.30
2022-09-18T19:29:39.533Z,1.53
2022-09-18T19:32:07.889Z,1.83
2022-09-18T19:34:34.547Z,1.43
2022-09-18T19:37:01.035Z,1.87
2022-09-18T19:39:27.503Z,3.80
2022-09-18T19:41:59.274Z,2.37
2022-09-18T19:44:25.826Z,2.93
2022-09-18T19:46:53.922Z,1.43
2022-09-18T19:49:22.675Z,3.37
2022-09-18T19:51:49.296Z,4.67
2022-09-18T19:54:15.769Z,2.30
2022-09-18T19:56:47.625Z,1.73
2022-09-18T19:59:16.562Z,2.93
2022-09-18T20:01:43.613Z,1.40
2022-09-18T20:04:10.173Z,2.77
2022-09-18T20:06:40.596Z,2.57
2022-09-18T20:09:07.388Z,2.43
2022-09-18T20:11:33.929Z,2.27
2022-09-18T20:14:00.684Z,4.07
2022-09-18T20:16:27.221Z,2.20
2022-09-18T20:18:54.702Z,2.23
2022-09-18T20:21:21.576Z,1.87
2022-09-18T20:23:48.425Z,2.10
2022-09-18T20:26:17.585Z,2.07
2022-09-18T20:28:44.973Z,2.20
2022-09-18T20:31:13.561Z,3.33
2022-09-18T20:33:40.658Z,2.20
2022-09-18T20:36:09.070Z,2.83
2022-09-18T20:38:38.423Z,3.20
2022-09-18T20:41:07.248Z,2.60
2022-09-18T20:43:35.820Z,3.33
2022-09-18T20:46:05.310Z,3.40
2022-09-18T20:48:37.303Z,2.27
2022-09-18T20:51:07.994Z,2.00
2022-09-18T20:53:38.272Z,2.07
2022-09-18T20:56:09.123Z,1.83
2022-09-18T20:58:36.231Z,1.43
2022-09-18T21:01:13.370Z,3.03
2022-09-18T21:03:42.291Z,1.77
2022-09-18T21:06:22.284Z,3.00
2022-09-18T21:08:50.475Z,2.17
2022-09-18T21:11:19.017Z,2.63
2022-09-18T21:13:49.112Z,1.70
2022-09-18T21:16:20.944Z,2.10
2022-09-18T21:18:48.989Z,1.50
2022-09-18T21:21:17.099Z,2.27
2022-09-18T21:24:01.452Z,1.43
2022-09-18T21:26:43.050Z,1.80
2022-09-18T21:29:21.737Z,1.20
2022-09-18T21:31:51.763Z,1.83
2022-09-18T21:34:24.350Z,1.20
2022-09-18T21:36:52.087Z,2.87
2022-09-18T21:39:19.052Z,1.70
2022-09-18T21:41:48.506Z,1.33
2022-09-18T21:44:17.306Z,2.70
2022-09-18T21:46:45.696Z,1.90
2022-09-18T21:49:13.079Z,2.43
2022-09-18T21:51:42.549Z,1.80
2022-09-18T21:54:18.623Z,1.37
2022-09-18T21:56:48.974Z,1.97
2022-09-18T21:59:15.710Z,2.33
2022-09-18T22:01:43.601Z,1.10
2022-09-18T22:04:11.219Z,1.00
2022-09-18T22:06:43.893Z,2.40
2022-09-18T22:09:39.913Z,1.40
2022-09-18T22:12:07.585Z,1.10
2022-09-18T22:14:35.405Z,2.27
2022-09-18T22:17:04.433Z,2.03
2022-09-18T22:19:33.199Z,2.13
2022-09-18T22:21:59.857Z,0.97
2022-09-18T22:24:27.750Z,2.60
2022-09-18T22:26:56.991Z,1.60
2022-09-18T22:29:31.204Z,2.30
2022-09-18T22:31:59.508Z,1.10
2022-09-18T22:34:28.717Z,1.37
2022-09-18T22:36:55.642Z,1.63
2022-09-18T22:39:22.817Z,1.73
2022-09-18T22:41:51.455Z,2.13
2022-09-18T22:44:20.557Z,2.07
2022-09-18T22:46:47.265Z,0.70
2022-09-18T22:49:15.335Z,1.00
2022-09-18T22:51:42.143Z,0.70
2022-09-18T22:54:08.688Z,1.33
2022-09-18T22:56:54.029Z,0.90
2022-09-18T22:59:22.450Z,3.30
2022-09-18T23:01:52.889Z,1.17
2022-09-18T23:04:21.456Z,2.13
2022-09-18T23:06:48.293Z,1.13
2022-09-18T23:09:16.084Z,1.10
2022-09-18T23:11:44.067Z,0.93
2022-09-18T23:14:20.500Z,3.47
2022-09-18T23:16:48.964Z,1.60
2022-09-18T23:19:30.130Z,2.07
2022-09-18T23:21:56.913Z,1.70
2022-09-18T23:24:23.852Z,1.57
2022-09-18T23:26:52.130Z,1.63
2022-09-18T23:29:21.067Z,4.43
2022-09-18T23:31:57.461Z,2.40
2022-09-18T23:34:28.504Z,1.93
2022-09-18T23:36:56.173Z,3.30
2022-09-18T23:39:25.377Z,3.40
2022-09-18T23:41:52.394Z,3.53
2022-09-18T23:44:20.755Z,5.57
2022-09-18T23:46:48.297Z,3.20
2022-09-18T23:49:16.033Z,3.90
2022-09-18T23:51:46.336Z,2.80
2022-09-18T23:54:20.135Z,3.10
2022-09-18T23:56:47.217Z,1.50
2022-09-18T23:59:15.175Z,2.30
